Terminal Aerodrome Forecast
Issued by NWS Paducah, KY

Home | Current Version | Previous Version | Text Only | Print | Product List | Glossary On
Versions: 1 2 3 4 5 6 7 8 9 10 11 12 13 14 15 16 17
000
FTUS43 KPAH 142200 AAA
TAFEVV
TAF AMD
KEVV 142219Z 1422/1518 32013G23KT 2SM -RA BR OVC010
     FM142315 32013G22KT 4SM -RA BR OVC015
     FM150500 32010G20KT P6SM BKN025
     FM151100 32010KT P6SM SKC=

USA.gov is the U.S. government's official web portal to all federal, state and local government web resources and services.